Malibu, CA

11:29 AM PDT on September 17, 2014 (GMT -0700)
Van Nuys | Change Station
CLOSE
Current Station
Airport
Location: Van Nuys,
Elevation: 801 ft
Nearby Weather Stations

Elev 801 ft 34.22 °N, 118.49 °W | Updated 38 minutes ago

Clear
Clear
96 °F
Feels Like 96 °F
N
8
Wind Variable Wind from South

Today
High -- | Low -- °F
--% Chance of Precip.
Yesterday
High -- | Low -- °F
Precip. -- in
6:39 AM 6:58 PM
Waning Crescent, 34% visible
Pressure 29.74 in
Visibility 10.0 miles
Clouds Clear
Heat Index 96 °F
Dew Point 60 °F
Humidity 30%
Rainfall 0.00 in
Snow Depth 0 in , 1 in , 0 in
UV 7 out of 12
Pollen 6.90 out of 12
Ozone Good
Flu Activity Not available.
METAR KVNY 171751Z 19007KT 10SM CLR 36/16 A2977 RMK AO2 SLP069 T03560156 10356 20261 50002

More Conditions Fewer Conditions

Pressure 29.74 in
Visibility 10.0 miles
Clouds Clear
Heat Index 96 °F
Dew Point 60 °F
Humidity 30%
Rainfall 0.00 in
Snow Depth 0 in , 1 in , 0 in
UV 7 out of 12
Pollen 6.90 out of 12
Ozone Good
Flu Activity Not available.
METAR KVNY 171751Z 19007KT 10SM CLR 36/16 A2977 RMK AO2 SLP069 T03560156 10356 20261 50002

More Conditions Fewer Conditions

10-Day Weather Forecast

Almanac

Astronomy

Sep. 17, 2014 Rise Set
Actual Time 6:39 AM PDT 6:58 PM PDT
Civil Twilight 6:14 AM PDT 7:23 PM PDT
Nautical Twilight 5:45 AM PDT 7:53 PM PDT
Astronomical Twilight 5:15 AM PDT 8:22 PM PDT
Moon 12:55 AM PDT 3:01 PM PDT
Length of Visible Light 13h 08m
Length of Day
12h 18m
Tomorrow will be 2m 6s shorter.
Waning Crescent, 34% of the Moon is Illuminated
Today
Waning Crescent
Sep 24
New
Oct 1
First Quarter
Oct 8
Full
Oct 15
Last Quarter

Today's Extremes

State Highs State Lows

Community

WunderPhotos

Upload Photos

1,754,123 photos uploaded!

WunderBlogs® & News

Nearby

Air Quality

  Air Quality AQ Index Pollutant
Yesterday Good
OZONE
Current Good
OZONE
Wednesday Good
PM10
Wednesday Good
OZONE
Wednesday Good
CO
Wednesday Good
NO2

Snow Depth

Station Depth Elevation
Spratt Creek 0 in 6200 ft
Summit Meadow 1 in 9122 ft
CSS Lab 0 in 6900 ft
Adin Mountain 0 in 6200 ft
Tahoe City Cross 0 in 6750 ft

Earthquake Activity

City Distance Mag. Time & Date
Lompoc, California 98 miles 2.5 8:13 AM PDT
2014-09-17
Minimum magnitude displayed is 2.5.

Coastal Water Temperatures

Place Temperature
Santa Monica Pier 73.0 °F
Los Angeles, CA 69.1 °F
La Jolla, CA 66.0 °F

Nearby Weather Stations